sensor_id;sensor_type;location;lat;lon;timestamp;pressure;altitude;pressure_sealevel;temperature;humidity
53340;BME280;46212;50.258;19.062;2023-03-16T00:02:08;98729.59;;;0.92;78.02
53340;BME280;46212;50.258;19.062;2023-03-16T00:04:35;98721.03;;;0.76;78.81
53340;BME280;46212;50.258;19.062;2023-03-16T00:07:05;98731.16;;;1.04;77.93
53340;BME280;46212;50.258;19.062;2023-03-16T00:09:31;98733.50;;;0.95;78.17
53340;BME280;46212;50.258;19.062;2023-03-16T00:11:57;98725.31;;;0.98;78.17
53340;BME280;46212;50.258;19.062;2023-03-16T00:14:24;98713.69;;;0.66;79.07
53340;BME280;46212;50.258;19.062;2023-03-16T00:16:49;98715.59;;;0.83;78.77
53340;BME280;46212;50.258;19.062;2023-03-16T00:19:15;98722.63;;;0.91;78.84
53340;BME280;46212;50.258;19.062;2023-03-16T00:21:40;98721.44;;;0.89;78.50
53340;BME280;46212;50.258;19.062;2023-03-16T00:24:06;98718.34;;;0.73;79.06
53340;BME280;46212;50.258;19.062;2023-03-16T00:26:31;98739.28;;;0.83;78.78
53340;BME280;46212;50.258;19.062;2023-03-16T00:28:57;98727.66;;;0.86;78.81
53340;BME280;46212;50.258;19.062;2023-03-16T00:31:22;98735.81;;;0.86;79.03
53340;BME280;46212;50.258;19.062;2023-03-16T00:33:49;98722.56;;;0.67;79.04
53340;BME280;46212;50.258;19.062;2023-03-16T00:36:15;98712.13;;;0.69;79.31
53340;BME280;46212;50.258;19.062;2023-03-16T00:38:41;98739.69;;;0.78;79.25
53340;BME280;46212;50.258;19.062;2023-03-16T00:41:11;98724.53;;;0.63;79.73
53340;BME280;46212;50.258;19.062;2023-03-16T00:43:39;98739.66;;;0.67;79.68
53340;BME280;46212;50.258;19.062;2023-03-16T00:46:06;98744.72;;;0.65;79.66
53340;BME280;46212;50.258;19.062;2023-03-16T00:48:33;98735.00;;;0.68;80.00
53340;BME280;46212;50.258;19.062;2023-03-16T00:51:03;98731.13;;;0.58;79.65
53340;BME280;46212;50.258;19.062;2023-03-16T00:53:32;98739.66;;;0.49;80.12
53340;BME280;46212;50.258;19.062;2023-03-16T00:55:58;98740.84;;;0.66;79.94
53340;BME280;46212;50.258;19.062;2023-03-16T00:58:23;98727.63;;;0.43;80.17
53340;BME280;46212;50.258;19.062;2023-03-16T01:00:49;98740.09;;;0.69;79.47
53340;BME280;46212;50.258;19.062;2023-03-16T01:03:16;98742.00;;;0.58;79.74
53340;BME280;46212;50.258;19.062;2023-03-16T01:05:41;98742.38;;;0.64;80.00
53340;BME280;46212;50.258;19.062;2023-03-16T01:08:07;98729.50;;;0.32;80.10
53340;BME280;46212;50.258;19.062;2023-03-16T01:10:36;98743.13;;;0.43;80.56
53340;BME280;46212;50.258;19.062;2023-03-16T01:13:02;98733.00;;;0.29;80.58
53340;BME280;46212;50.258;19.062;2023-03-16T01:15:30;98729.50;;;0.18;80.97
53340;BME280;46212;50.258;19.062;2023-03-16T01:17:56;98752.00;;;0.26;81.31
53340;BME280;46212;50.258;19.062;2023-03-16T01:20:22;98751.28;;;0.43;81.36
53340;BME280;46212;50.258;19.062;2023-03-16T01:22:47;98752.41;;;0.38;80.89
53340;BME280;46212;50.258;19.062;2023-03-16T01:25:13;98750.78;;;0.06;81.26
53340;BME280;46212;50.258;19.062;2023-03-16T01:27:39;98749.94;;;-0.09;82.10
53340;BME280;46212;50.258;19.062;2023-03-16T01:30:05;98728.53;;;-0.32;82.53
53340;BME280;46212;50.258;19.062;2023-03-16T01:32:30;98738.25;;;-0.20;82.77
53340;BME280;46212;50.258;19.062;2023-03-16T01:34:56;98758.03;;;-0.20;83.03
53340;BME280;46212;50.258;19.062;2023-03-16T01:37:22;98742.19;;;-0.07;83.08
53340;BME280;46212;50.258;19.062;2023-03-16T01:39:48;98754.63;;;0.01;82.51
53340;BME280;46212;50.258;19.062;2023-03-16T01:42:14;98752.81;;;-0.49;83.51
53340;BME280;46212;50.258;19.062;2023-03-16T01:44:56;98765.19;;;-0.56;84.39
53340;BME280;46212;50.258;19.062;2023-03-16T01:47:22;98763.19;;;0.03;84.19
53340;BME280;46212;50.258;19.062;2023-03-16T01:49:49;98753.84;;;-0.07;83.09
53340;BME280;46212;50.258;19.062;2023-03-16T01:52:22;98763.97;;;0.07;82.68
53340;BME280;46212;50.258;19.062;2023-03-16T01:55:05;98765.28;;;-0.38;84.44
53340;BME280;46212;50.258;19.062;2023-03-16T01:57:35;98760.53;;;0.24;82.33
53340;BME280;46212;50.258;19.062;2023-03-16T02:00:12;98772.69;;;-0.38;83.29
53340;BME280;46212;50.258;19.062;2023-03-16T02:02:51;98768.13;;;-0.17;84.17
53340;BME280;46212;50.258;19.062;2023-03-16T02:05:22;98765.78;;;-0.22;83.78
53340;BME280;46212;50.258;19.062;2023-03-16T02:07:50;98774.84;;;0.14;82.82
53340;BME280;46212;50.258;19.062;2023-03-16T02:10:19;98778.38;;;0.18;82.73
53340;BME280;46212;50.258;19.062;2023-03-16T02:12:44;98781.53;;;0.34;82.21
53340;BME280;46212;50.258;19.062;2023-03-16T02:15:11;98773.28;;;0.13;82.50
53340;BME280;46212;50.258;19.062;2023-03-16T02:17:38;98762.44;;;0.13;82.12
53340;BME280;46212;50.258;19.062;2023-03-16T02:20:49;98782.31;;;0.31;81.91
53340;BME280;46212;50.258;19.062;2023-03-16T02:23:18;98784.63;;;-0.46;83.57
53340;BME280;46212;50.258;19.062;2023-03-16T02:28:46;98797.88;;;-0.34;84.00
53340;BME280;46212;50.258;19.062;2023-03-16T02:31:17;98786.91;;;-0.56;84.97
53340;BME280;46212;50.258;19.062;2023-03-16T02:33:44;98794.97;;;-0.63;86.23
53340;BME280;46212;50.258;19.062;2023-03-16T02:36:12;98798.09;;;-0.61;86.06
53340;BME280;46212;50.258;19.062;2023-03-16T02:38:39;98802.41;;;-0.52;85.78
53340;BME280;46212;50.258;19.062;2023-03-16T02:41:15;98802.28;;;-0.70;85.92
53340;BME280;46212;50.258;19.062;2023-03-16T02:43:54;98822.91;;;-0.59;86.19
53340;BME280;46212;50.258;19.062;2023-03-16T02:46:26;98821.41;;;-0.52;85.70
53340;BME280;46212;50.258;19.062;2023-03-16T02:49:00;98813.69;;;-0.94;86.48
53340;BME280;46212;50.258;19.062;2023-03-16T02:51:28;98829.72;;;-0.79;86.79
53340;BME280;46212;50.258;19.062;2023-03-16T02:53:53;98825.16;;;-0.68;86.66
53340;BME280;46212;50.258;19.062;2023-03-16T02:56:19;98838.78;;;-0.61;86.36
53340;BME280;46212;50.258;19.062;2023-03-16T02:58:44;98844.38;;;-0.87;86.55
53340;BME280;46212;50.258;19.062;2023-03-16T03:01:09;98844.25;;;-0.97;86.96
53340;BME280;46212;50.258;19.062;2023-03-16T03:03:35;98836.88;;;-1.00;87.30
53340;BME280;46212;50.258;19.062;2023-03-16T03:06:01;98852.13;;;-0.85;87.06
53340;BME280;46212;50.258;19.062;2023-03-16T03:08:26;98851.56;;;-1.05;87.79
53340;BME280;46212;50.258;19.062;2023-03-16T03:10:52;98853.06;;;-1.08;88.41
53340;BME280;46212;50.258;19.062;2023-03-16T03:13:17;98861.53;;;-1.13;88.79
53340;BME280;46212;50.258;19.062;2023-03-16T03:15:45;98859.47;;;-1.26;89.03
53340;BME280;46212;50.258;19.062;2023-03-16T03:18:10;98846.53;;;-1.43;89.27
53340;BME280;46212;50.258;19.062;2023-03-16T03:20:36;98867.44;;;-1.40;89.85
53340;BME280;46212;50.258;19.062;2023-03-16T03:23:01;98858.59;;;-1.37;90.21
53340;BME280;46212;50.258;19.062;2023-03-16T03:25:27;98858.94;;;-1.39;89.36
53340;BME280;46212;50.258;19.062;2023-03-16T03:27:52;98864.13;;;-1.23;89.59
53340;BME280;46212;50.258;19.062;2023-03-16T03:30:23;98861.47;;;-1.20;88.83
53340;BME280;46212;50.258;19.062;2023-03-16T03:32:49;98854.00;;;-1.30;88.27
53340;BME280;46212;50.258;19.062;2023-03-16T03:35:16;98854.56;;;-1.50;88.43
53340;BME280;46212;50.258;19.062;2023-03-16T03:37:43;98875.66;;;-1.33;88.42
53340;BME280;46212;50.258;19.062;2023-03-16T03:40:10;98879.47;;;-1.38;88.12
53340;BME280;46212;50.258;19.062;2023-03-16T03:42:37;98877.84;;;-1.42;88.00
53340;BME280;46212;50.258;19.062;2023-03-16T03:45:03;98877.44;;;-1.44;87.80
53340;BME280;46212;50.258;19.062;2023-03-16T03:47:29;98865.25;;;-1.61;88.29
53340;BME280;46212;50.258;19.062;2023-03-16T03:49:54;98884.59;;;-1.63;88.96
53340;BME280;46212;50.258;19.062;2023-03-16T03:52:20;98887.06;;;-1.50;88.59
53340;BME280;46212;50.258;19.062;2023-03-16T03:54:45;98880.16;;;-1.74;88.94
53340;BME280;46212;50.258;19.062;2023-03-16T03:57:11;98892.22;;;-1.72;89.65
53340;BME280;46212;50.258;19.062;2023-03-16T03:59:36;98896.91;;;-1.69;89.76
53340;BME280;46212;50.258;19.062;2023-03-16T04:02:07;98908.63;;;-1.57;89.29
53340;BME280;46212;50.258;19.062;2023-03-16T04:04:33;98902.81;;;-1.59;88.69
53340;BME280;46212;50.258;19.062;2023-03-16T04:06:59;98898.09;;;-1.66;88.60
53340;BME280;46212;50.258;19.062;2023-03-16T04:09:24;98908.75;;;-1.77;88.68
53340;BME280;46212;50.258;19.062;2023-03-16T04:11:50;98904.59;;;-1.71;88.35
53340;BME280;46212;50.258;19.062;2023-03-16T04:14:15;98903.16;;;-1.91;89.06
53340;BME280;46212;50.258;19.062;2023-03-16T04:16:41;98894.78;;;-1.82;89.79
53340;BME280;46212;50.258;19.062;2023-03-16T04:19:08;98921.22;;;-1.72;90.13
53340;BME280;46212;50.258;19.062;2023-03-16T04:21:33;98911.16;;;-1.72;90.57
53340;BME280;46212;50.258;19.062;2023-03-16T04:23:59;98925.09;;;-1.70;90.68
53340;BME280;46212;50.258;19.062;2023-03-16T04:26:25;98921.25;;;-1.69;91.25
53340;BME280;46212;50.258;19.062;2023-03-16T04:28:51;98921.50;;;-1.77;91.48
53340;BME280;46212;50.258;19.062;2023-03-16T04:31:17;98909.81;;;-2.11;91.80
53340;BME280;46212;50.258;19.062;2023-03-16T04:33:43;98914.97;;;-2.02;92.13
53340;BME280;46212;50.258;19.062;2023-03-16T04:36:08;98915.47;;;-1.97;92.57
53340;BME280;46212;50.258;19.062;2023-03-16T04:38:34;98924.31;;;-2.00;93.26
53340;BME280;46212;50.258;19.062;2023-03-16T04:41:01;98920.81;;;-2.00;93.15
53340;BME280;46212;50.258;19.062;2023-03-16T04:43:27;98919.31;;;-1.98;92.99
53340;BME280;46212;50.258;19.062;2023-03-16T04:45:52;98921.94;;;-2.01;93.28
53340;BME280;46212;50.258;19.062;2023-03-16T04:48:18;98926.47;;;-2.09;93.32
53340;BME280;46212;50.258;19.062;2023-03-16T04:50:43;98924.31;;;-2.00;93.65
53340;BME280;46212;50.258;19.062;2023-03-16T04:53:09;98925.56;;;-1.94;93.64
53340;BME280;46212;50.258;19.062;2023-03-16T04:55:34;98936.56;;;-1.80;92.73
53340;BME280;46212;50.258;19.062;2023-03-16T04:58:00;98934.09;;;-1.92;91.96
53340;BME280;46212;50.258;19.062;2023-03-16T05:00:26;98934.06;;;-2.18;93.00
53340;BME280;46212;50.258;19.062;2023-03-16T05:02:52;98937.34;;;-2.05;92.85
53340;BME280;46212;50.258;19.062;2023-03-16T05:05:18;98940.25;;;-2.18;92.69
53340;BME280;46212;50.258;19.062;2023-03-16T05:07:44;98945.38;;;-2.12;92.58
53340;BME280;46212;50.258;19.062;2023-03-16T05:10:12;98945.84;;;-2.07;92.25
53340;BME280;46212;50.258;19.062;2023-03-16T05:12:38;98933.91;;;-2.29;91.59
53340;BME280;46212;50.258;19.062;2023-03-16T05:15:04;98931.03;;;-2.39;93.02
53340;BME280;46212;50.258;19.062;2023-03-16T05:17:30;98954.88;;;-2.22;93.33
53340;BME280;46212;50.258;19.062;2023-03-16T05:19:55;98944.59;;;-2.13;93.25
53340;BME280;46212;50.258;19.062;2023-03-16T05:22:21;98958.34;;;-2.22;93.24
53340;BME280;46212;50.258;19.062;2023-03-16T05:24:46;98941.72;;;-2.24;93.22
53340;BME280;46212;50.258;19.062;2023-03-16T05:27:12;98952.47;;;-2.27;93.44
53340;BME280;46212;50.258;19.062;2023-03-16T05:29:37;98956.50;;;-2.18;93.01
53340;BME280;46212;50.258;19.062;2023-03-16T05:32:04;98936.47;;;-2.13;93.16
53340;BME280;46212;50.258;19.062;2023-03-16T05:34:31;98963.75;;;-1.99;92.85
53340;BME280;46212;50.258;19.062;2023-03-16T05:36:56;98961.50;;;-1.93;92.62
53340;BME280;46212;50.258;19.062;2023-03-16T05:39:22;98948.28;;;-1.98;92.84
53340;BME280;46212;50.258;19.062;2023-03-16T05:41:48;98948.03;;;-1.90;92.40
53340;BME280;46212;50.258;19.062;2023-03-16T05:44:13;98960.88;;;-1.83;92.30
53340;BME280;46212;50.258;19.062;2023-03-16T05:46:39;98968.69;;;-1.78;92.10
53340;BME280;46212;50.258;19.062;2023-03-16T05:49:04;98972.31;;;-1.67;92.48
53340;BME280;46212;50.258;19.062;2023-03-16T05:51:30;98950.63;;;-1.71;92.12
53340;BME280;46212;50.258;19.062;2023-03-16T05:53:56;98960.34;;;-1.66;92.04
53340;BME280;46212;50.258;19.062;2023-03-16T05:56:25;98981.41;;;-1.56;92.20
53340;BME280;46212;50.258;19.062;2023-03-16T05:58:52;98985.00;;;-1.45;92.26
53340;BME280;46212;50.258;19.062;2023-03-16T06:01:18;98967.06;;;-1.27;91.71
53340;BME280;46212;50.258;19.062;2023-03-16T06:03:48;98973.75;;;-1.17;91.28
53340;BME280;46212;50.258;19.062;2023-03-16T06:06:19;98987.03;;;-1.09;91.11
53340;BME280;46212;50.258;19.062;2023-03-16T06:08:45;98984.91;;;-0.92;90.77
53340;BME280;46212;50.258;19.062;2023-03-16T06:11:11;98997.16;;;-0.69;90.51
53340;BME280;46212;50.258;19.062;2023-03-16T06:13:37;99001.06;;;-0.66;89.67
53340;BME280;46212;50.258;19.062;2023-03-16T06:16:03;99006.66;;;-0.52;89.37
53340;BME280;46212;50.258;19.062;2023-03-16T06:18:31;99009.75;;;-0.50;88.82
53340;BME280;46212;50.258;19.062;2023-03-16T06:20:56;99020.59;;;-0.13;87.96
53340;BME280;46212;50.258;19.062;2023-03-16T06:23:22;98991.41;;;-0.23;87.09
53340;BME280;46212;50.258;19.062;2023-03-16T06:25:48;99017.91;;;-0.06;86.49
53340;BME280;46212;50.258;19.062;2023-03-16T06:28:15;99018.50;;;0.17;85.70
53340;BME280;46212;50.258;19.062;2023-03-16T06:30:41;99010.84;;;0.30;84.97
53340;BME280;46212;50.258;19.062;2023-03-16T06:33:07;99022.31;;;0.06;85.41
53340;BME280;46212;50.258;19.062;2023-03-16T06:35:32;99016.91;;;0.09;85.69
53340;BME280;46212;50.258;19.062;2023-03-16T06:37:58;99021.16;;;0.10;85.81
53340;BME280;46212;50.258;19.062;2023-03-16T06:40:24;99031.91;;;-0.04;85.90
53340;BME280;46212;50.258;19.062;2023-03-16T06:42:50;99019.34;;;0.25;85.65
53340;BME280;46212;50.258;19.062;2023-03-16T06:45:17;99031.81;;;0.33;84.54
53340;BME280;46212;50.258;19.062;2023-03-16T06:47:45;99035.13;;;0.60;84.34
53340;BME280;46212;50.258;19.062;2023-03-16T06:50:11;99031.09;;;0.39;83.86
53340;BME280;46212;50.258;19.062;2023-03-16T06:52:37;99030.59;;;0.85;82.97
53340;BME280;46212;50.258;19.062;2023-03-16T06:55:02;99041.69;;;0.59;82.78
53340;BME280;46212;50.258;19.062;2023-03-16T06:57:28;99030.78;;;0.51;83.04
53340;BME280;46212;50.258;19.062;2023-03-16T06:59:53;99043.78;;;0.83;82.95
53340;BME280;46212;50.258;19.062;2023-03-16T07:02:19;99011.50;;;0.74;82.16
53340;BME280;46212;50.258;19.062;2023-03-16T07:04:48;99040.06;;;1.19;81.76
53340;BME280;46212;50.258;19.062;2023-03-16T07:07:13;99044.91;;;1.65;80.80
53340;BME280;46212;50.258;19.062;2023-03-16T07:09:38;99046.78;;;1.46;79.98
53340;BME280;46212;50.258;19.062;2023-03-16T07:12:04;99039.81;;;1.49;80.37
53340;BME280;46212;50.258;19.062;2023-03-16T07:14:29;99054.59;;;1.58;80.49
53340;BME280;46212;50.258;19.062;2023-03-16T07:16:55;99044.88;;;1.57;79.17
53340;BME280;46212;50.258;19.062;2023-03-16T07:19:21;99052.72;;;2.01;78.89
53340;BME280;46212;50.258;19.062;2023-03-16T07:21:47;99060.78;;;3.11;74.79
53340;BME280;46212;50.258;19.062;2023-03-16T07:24:13;99066.28;;;2.97;74.12
53340;BME280;46212;50.258;19.062;2023-03-16T07:26:39;99063.59;;;2.86;73.67
53340;BME280;46212;50.258;19.062;2023-03-16T07:29:06;99067.81;;;3.15;73.57
53340;BME280;46212;50.258;19.062;2023-03-16T07:31:32;99041.28;;;3.16;72.67
53340;BME280;46212;50.258;19.062;2023-03-16T07:33:59;99054.50;;;3.28;72.43
53340;BME280;46212;50.258;19.062;2023-03-16T07:36:25;99058.34;;;3.41;72.14
53340;BME280;46212;50.258;19.062;2023-03-16T07:38:50;99065.31;;;3.46;71.53
53340;BME280;46212;50.258;19.062;2023-03-16T07:41:16;99073.28;;;3.08;72.05
53340;BME280;46212;50.258;19.062;2023-03-16T07:43:42;99070.41;;;3.47;71.70
53340;BME280;46212;50.258;19.062;2023-03-16T07:46:09;99074.03;;;3.19;71.17
53340;BME280;46212;50.258;19.062;2023-03-16T07:48:41;99063.47;;;3.29;70.89
53340;BME280;46212;50.258;19.062;2023-03-16T07:51:08;99075.97;;;3.26;71.01
53340;BME280;46212;50.258;19.062;2023-03-16T07:53:34;99074.75;;;3.34;70.83
53340;BME280;46212;50.258;19.062;2023-03-16T07:55:59;99072.47;;;3.22;71.20
53340;BME280;46212;50.258;19.062;2023-03-16T07:58:25;99054.47;;;3.39;70.45
53340;BME280;46212;50.258;19.062;2023-03-16T08:00:51;99070.75;;;3.53;69.84
53340;BME280;46212;50.258;19.062;2023-03-16T08:03:16;99061.09;;;3.38;69.71
53340;BME280;46212;50.258;19.062;2023-03-16T08:05:42;99073.59;;;3.32;69.90
53340;BME280;46212;50.258;19.062;2023-03-16T08:08:07;99080.50;;;3.57;68.63
53340;BME280;46212;50.258;19.062;2023-03-16T08:10:34;99082.91;;;3.48;68.33
53340;BME280;46212;50.258;19.062;2023-03-16T08:13:01;99084.13;;;3.30;69.89
53340;BME280;46212;50.258;19.062;2023-03-16T08:15:28;99070.78;;;3.49;69.52
53340;BME280;46212;50.258;19.062;2023-03-16T08:17:55;99072.56;;;3.81;69.02
53340;BME280;46212;50.258;19.062;2023-03-16T08:20:20;99097.13;;;3.88;69.11
53340;BME280;46212;50.258;19.062;2023-03-16T08:22:46;99092.63;;;3.49;69.03
53340;BME280;46212;50.258;19.062;2023-03-16T08:25:12;99087.16;;;3.49;69.64
53340;BME280;46212;50.258;19.062;2023-03-16T08:27:38;99095.09;;;3.19;70.42
53340;BME280;46212;50.258;19.062;2023-03-16T08:30:05;99094.28;;;3.29;72.34
53340;BME280;46212;50.258;19.062;2023-03-16T08:32:32;99107.81;;;3.57;70.96
53340;BME280;46212;50.258;19.062;2023-03-16T08:34:57;99092.00;;;2.92;71.66
53340;BME280;46212;50.258;19.062;2023-03-16T08:37:25;99105.31;;;2.73;72.74
53340;BME280;46212;50.258;19.062;2023-03-16T08:39:51;99107.22;;;2.93;72.00
53340;BME280;46212;50.258;19.062;2023-03-16T08:42:17;99107.50;;;3.41;69.93
53340;BME280;46212;50.258;19.062;2023-03-16T08:44:44;99107.25;;;2.76;71.05
53340;BME280;46212;50.258;19.062;2023-03-16T08:47:09;99104.50;;;2.83;71.84
53340;BME280;46212;50.258;19.062;2023-03-16T08:49:36;99097.47;;;2.99;72.00
53340;BME280;46212;50.258;19.062;2023-03-16T08:52:02;99083.88;;;2.82;71.67
53340;BME280;46212;50.258;19.062;2023-03-16T08:54:28;99099.81;;;2.94;71.82
53340;BME280;46212;50.258;19.062;2023-03-16T08:56:54;99107.50;;;3.31;71.94
53340;BME280;46212;50.258;19.062;2023-03-16T08:59:19;99110.41;;;3.86;69.74
53340;BME280;46212;50.258;19.062;2023-03-16T09:01:45;99116.19;;;4.02;69.81
53340;BME280;46212;50.258;19.062;2023-03-16T09:04:10;99097.72;;;4.16;67.95
53340;BME280;46212;50.258;19.062;2023-03-16T09:06:37;99107.81;;;4.26;67.63
53340;BME280;46212;50.258;19.062;2023-03-16T09:09:03;99099.69;;;4.16;66.83
53340;BME280;46212;50.258;19.062;2023-03-16T09:11:28;99117.66;;;4.17;67.31
53340;BME280;46212;50.258;19.062;2023-03-16T09:13:58;99112.13;;;4.27;66.60
53340;BME280;46212;50.258;19.062;2023-03-16T09:16:24;99116.56;;;4.59;65.26
53340;BME280;46212;50.258;19.062;2023-03-16T09:18:50;99114.31;;;4.95;63.99
53340;BME280;46212;50.258;19.062;2023-03-16T09:21:16;99121.16;;;4.72;63.87
53340;BME280;46212;50.258;19.062;2023-03-16T09:23:42;99120.09;;;5.00;62.42
53340;BME280;46212;50.258;19.062;2023-03-16T09:26:09;99108.22;;;5.14;62.13
53340;BME280;46212;50.258;19.062;2023-03-16T09:28:35;99122.69;;;5.82;58.08
53340;BME280;46212;50.258;19.062;2023-03-16T09:31:04;99121.00;;;5.95;57.93
53340;BME280;46212;50.258;19.062;2023-03-16T09:33:30;99122.81;;;5.71;59.49
53340;BME280;46212;50.258;19.062;2023-03-16T09:35:56;99125.69;;;5.27;58.85
53340;BME280;46212;50.258;19.062;2023-03-16T09:38:23;99129.34;;;5.17;58.06
53340;BME280;46212;50.258;19.062;2023-03-16T09:41:00;99124.22;;;5.19;58.21
53340;BME280;46212;50.258;19.062;2023-03-16T09:43:50;99116.91;;;5.43;58.09
53340;BME280;46212;50.258;19.062;2023-03-16T09:46:38;99135.72;;;5.03;58.98
53340;BME280;46212;50.258;19.062;2023-03-16T09:49:08;99118.78;;;5.15;58.50
53340;BME280;46212;50.258;19.062;2023-03-16T09:54:14;99136.13;;;4.98;59.39
53340;BME280;46212;50.258;19.062;2023-03-16T09:56:43;99141.72;;;4.88;59.66
53340;BME280;46212;50.258;19.062;2023-03-16T09:59:13;99132.66;;;5.69;57.46
53340;BME280;46212;50.258;19.062;2023-03-16T10:02:35;99133.22;;;6.17;56.08
53340;BME280;46212;50.258;19.062;2023-03-16T10:09:58;99137.22;;;6.09;54.99
53340;BME280;46212;50.258;19.062;2023-03-16T10:12:32;99144.19;;;5.53;55.60
53340;BME280;46212;50.258;19.062;2023-03-16T10:15:09;99147.34;;;5.52;55.92
53340;BME280;46212;50.258;19.062;2023-03-16T10:17:41;99138.72;;;6.17;52.94
53340;BME280;46212;50.258;19.062;2023-03-16T10:20:16;99138.03;;;6.36;52.68
53340;BME280;46212;50.258;19.062;2023-03-16T10:22:45;99153.06;;;6.25;53.06
53340;BME280;46212;50.258;19.062;2023-03-16T10:25:29;99158.25;;;6.73;51.94
53340;BME280;46212;50.258;19.062;2023-03-16T10:27:55;99147.84;;;6.61;52.61
53340;BME280;46212;50.258;19.062;2023-03-16T10:32:54;99162.78;;;6.33;51.56
53340;BME280;46212;50.258;19.062;2023-03-16T10:38:08;99154.13;;;5.36;53.22
53340;BME280;46212;50.258;19.062;2023-03-16T10:40:52;99155.38;;;5.66;53.45
53340;BME280;46212;50.258;19.062;2023-03-16T10:43:18;99144.66;;;5.48;52.70
53340;BME280;46212;50.258;19.062;2023-03-16T10:45:44;99149.03;;;5.72;52.45
53340;BME280;46212;50.258;19.062;2023-03-16T10:48:14;99150.72;;;5.97;51.24
53340;BME280;46212;50.258;19.062;2023-03-16T10:50:42;99138.34;;;6.42;48.98
53340;BME280;46212;50.258;19.062;2023-03-16T10:53:16;99159.19;;;6.63;49.86
53340;BME280;46212;50.258;19.062;2023-03-16T10:55:43;99133.66;;;7.12;49.38
53340;BME280;46212;50.258;19.062;2023-03-16T10:58:10;99135.28;;;7.29;48.67
53340;BME280;46212;50.258;19.062;2023-03-16T11:00:46;99147.34;;;7.16;48.85
53340;BME280;46212;50.258;19.062;2023-03-16T11:03:25;99141.72;;;7.42;48.73
53340;BME280;46212;50.258;19.062;2023-03-16T11:06:03;99131.66;;;7.56;48.11
53340;BME280;46212;50.258;19.062;2023-03-16T11:08:38;99132.72;;;7.81;45.33
53340;BME280;46212;50.258;19.062;2023-03-16T11:11:28;99142.44;;;7.66;45.57
53340;BME280;46212;50.258;19.062;2023-03-16T11:13:57;99133.59;;;7.16;46.13
53340;BME280;46212;50.258;19.062;2023-03-16T11:16:43;99135.28;;;6.86;47.56
53340;BME280;46212;50.258;19.062;2023-03-16T11:19:17;99141.97;;;7.09;47.24
53340;BME280;46212;50.258;19.062;2023-03-16T11:22:09;99133.16;;;7.17;47.45
53340;BME280;46212;50.258;19.062;2023-03-16T11:24:48;99114.59;;;7.25;47.79
53340;BME280;46212;50.258;19.062;2023-03-16T11:32:37;99133.09;;;7.99;46.45
53340;BME280;46212;50.258;19.062;2023-03-16T11:35:17;99139.78;;;7.82;44.92
53340;BME280;46212;50.258;19.062;2023-03-16T11:37:57;99137.03;;;7.63;44.21
53340;BME280;46212;50.258;19.062;2023-03-16T11:40:41;99129.50;;;7.24;44.78
53340;BME280;46212;50.258;19.062;2023-03-16T11:54:50;99117.59;;;8.61;42.57
53340;BME280;46212;50.258;19.062;2023-03-16T12:00:19;99093.63;;;9.06;39.14
53340;BME280;46212;50.258;19.062;2023-03-16T12:06:04;99116.38;;;8.10;40.27
53340;BME280;46212;50.258;19.062;2023-03-16T12:16:16;99132.28;;;8.19;42.04
53340;BME280;46212;50.258;19.062;2023-03-16T12:18:48;99122.22;;;8.12;41.91
53340;BME280;46212;50.258;19.062;2023-03-16T12:21:28;99115.19;;;8.11;42.44
53340;BME280;46212;50.258;19.062;2023-03-16T12:24:02;99121.72;;;7.81;42.16
53340;BME280;46212;50.258;19.062;2023-03-16T12:26:32;99115.03;;;7.82;43.07
53340;BME280;46212;50.258;19.062;2023-03-16T12:29:03;99111.56;;;7.78;44.06
53340;BME280;46212;50.258;19.062;2023-03-16T12:31:36;99113.97;;;7.76;42.54
53340;BME280;46212;50.258;19.062;2023-03-16T12:39:23;99115.69;;;7.70;42.25
53340;BME280;46212;50.258;19.062;2023-03-16T12:44:46;99113.63;;;8.46;41.16
53340;BME280;46212;50.258;19.062;2023-03-16T12:47:46;99103.91;;;8.74;41.43
53340;BME280;46212;50.258;19.062;2023-03-16T12:50:18;99097.06;;;8.94;39.68
53340;BME280;46212;50.258;19.062;2023-03-16T12:52:50;99108.59;;;9.50;38.53
53340;BME280;46212;50.258;19.062;2023-03-16T12:55:17;99116.31;;;9.27;38.97
53340;BME280;46212;50.258;19.062;2023-03-16T12:57:45;99108.56;;;9.22;38.68
53340;BME280;46212;50.258;19.062;2023-03-16T13:00:13;99107.03;;;9.49;38.11
53340;BME280;46212;50.258;19.062;2023-03-16T13:02:55;99107.00;;;9.78;37.46
53340;BME280;46212;50.258;19.062;2023-03-16T13:05:30;99109.88;;;9.87;37.43
53340;BME280;46212;50.258;19.062;2023-03-16T13:08:12;99111.97;;;9.83;37.47
53340;BME280;46212;50.258;19.062;2023-03-16T13:10:39;99115.25;;;9.66;37.70
53340;BME280;46212;50.258;19.062;2023-03-16T13:13:12;99102.47;;;9.43;37.06
53340;BME280;46212;50.258;19.062;2023-03-16T13:15:40;99103.47;;;9.78;36.75
53340;BME280;46212;50.258;19.062;2023-03-16T13:25:43;99108.22;;;16.78;26.04
53340;BME280;46212;50.258;19.062;2023-03-16T13:28:13;99108.50;;;18.38;24.51
53340;BME280;46212;50.258;19.062;2023-03-16T13:30:46;99110.16;;;21.35;20.96
53340;BME280;46212;50.258;19.062;2023-03-16T13:33:20;99113.59;;;19.95;21.53
53340;BME280;46212;50.258;19.062;2023-03-16T13:35:49;99115.53;;;23.71;18.90
53340;BME280;46212;50.258;19.062;2023-03-16T13:38:17;99104.47;;;23.73;17.60
53340;BME280;46212;50.258;19.062;2023-03-16T13:40:51;99108.19;;;24.19;17.99
53340;BME280;46212;50.258;19.062;2023-03-16T13:43:23;99100.00;;;21.21;19.76
53340;BME280;46212;50.258;19.062;2023-03-16T13:45:49;99104.19;;;20.76;21.28
53340;BME280;46212;50.258;19.062;2023-03-16T13:48:16;99109.91;;;21.33;19.74
53340;BME280;46212;50.258;19.062;2023-03-16T13:50:42;99116.38;;;21.11;19.73
53340;BME280;46212;50.258;19.062;2023-03-16T13:55:44;99106.94;;;23.21;17.37
53340;BME280;46212;50.258;19.062;2023-03-16T13:58:20;99106.97;;;19.87;20.06
53340;BME280;46212;50.258;19.062;2023-03-16T14:00:46;99105.34;;;19.52;20.49
53340;BME280;46212;50.258;19.062;2023-03-16T14:03:17;99089.84;;;16.22;24.55
53340;BME280;46212;50.258;19.062;2023-03-16T14:05:43;99097.91;;;22.20;19.01
53340;BME280;46212;50.258;19.062;2023-03-16T14:08:18;99103.63;;;19.88;20.06